»·PEaware :: N32PW KBLI-KKLS

N32PW :: KBLI-KKLS

FLIGHT INFORMATION

Flight Status: Arrived
Operator: Privately registered:
United States
More flights under this callsign
Pilot: Jason D. (200)
Aircraft: Cessna 525C Citation CJ4
(C25C)
More flights by this aircraft type
Origin: KBLI Bellingham Intl
United States
Destination: KKLS Kelso-Longview
United States
More flights between these airports :: More routes between these airports
Route: KIENO6 CVV OLM WINLO
File this flight plan on PilotEdge
Remarks:
Altitude:
(Current/Filed)
31,000ft
Speed:
(Current/Filed)
441kts
Departed: 24-Mar-23 04:31 PM
Arrived: 24-Mar-23 05:08 PM
Distance/Time
Traveled:
161nm/0:37
Distance/Time
To Go:
Arrived

Flight Plot

Page will automatically refresh every two minutes.

Flight plan parsing failed; only flown route is shown


Map Options




Map Legend


Flown Route
Filed Route
Departure Airport
Arrival Airport
Navaid (VOR, NDB)
Fix

Horizontal Profiles

Position Reports

Time Latitude Longitude Heading Altitude Ground
Speed
24-Mar-23 16:09 48.793519 -122.532094 103 169ft 0kts
24-Mar-23 16:10 48.793519 -122.532094 103 169ft 0kts
24-Mar-23 16:11 48.793519 -122.532094 103 169ft 0kts
24-Mar-23 16:12 48.793519 -122.532094 103 169ft 0kts
24-Mar-23 16:13 48.793519 -122.532094 103 169ft 0kts
24-Mar-23 16:14 48.793519 -122.532094 103 169ft 0kts
24-Mar-23 16:21 48.793519 -122.532094 103 169ft 0kts
24-Mar-23 16:22 48.793519 -122.532094 103 169ft 0kts
24-Mar-23 16:23 48.793519 -122.532094 103 169ft 0kts
24-Mar-23 16:24 48.793519 -122.532094 103 169ft 0kts
24-Mar-23 16:25 48.793519 -122.532094 103 169ft 0kts
24-Mar-23 16:26 48.793605 -122.532136 267 169ft 8kts
24-Mar-23 16:27 48.795705 -122.535851 359 168ft 17kts
24-Mar-23 16:28 48.801384 -122.535759 351 166ft 19kts
24-Mar-23 16:29 48.801760 -122.536411 270 166ft 0kts
24-Mar-23 16:30 48.794168 -122.537536 182 207ft 138kts
24-Mar-23 16:31 48.744926 -122.577124 200 2841ft 227kts
24-Mar-23 16:32 48.677005 -122.579153 182 6015ft 259kts
24-Mar-23 16:33 48.608940 -122.597910 195 6065ft 246kts
24-Mar-23 16:34 48.540436 -122.621806 196 10966ft 263kts
24-Mar-23 16:35 48.465934 -122.647772 196 15707ft 284kts
24-Mar-23 16:36 48.386638 -122.675348 195 20151ft 302kts
24-Mar-23 16:37 48.301877 -122.704649 195 23693ft 322kts
24-Mar-23 16:38 48.211288 -122.728984 187 26088ft 342kts
24-Mar-23 16:39 48.114183 -122.743023 188 28286ft 360kts
24-Mar-23 16:40 48.013283 -122.757307 189 30685ft 366kts
24-Mar-23 16:41 47.908045 -122.772227 189 31207ft 396kts
24-Mar-23 16:42 47.795087 -122.788113 189 31207ft 417kts
24-Mar-23 16:43 47.677767 -122.804510 189 31204ft 428kts
24-Mar-23 16:44 47.558308 -122.821141 189 31204ft 433kts
24-Mar-23 16:45 47.437677 -122.837885 190 31203ft 437kts
24-Mar-23 16:46 47.316382 -122.854659 190 31202ft 439kts
24-Mar-23 16:47 47.194846 -122.871366 190 31210ft 440kts
24-Mar-23 16:48 47.072642 -122.888066 190 31249ft 441kts
24-Mar-23 16:49 46.951361 -122.909727 200 31244ft 434kts
24-Mar-23 16:50 46.834541 -122.955371 201 31251ft 434kts
24-Mar-23 16:51 46.719659 -123.000009 201 27601ft 425kts
24-Mar-23 16:52 46.614333 -123.040505 201 24279ft 330kts
24-Mar-23 16:53 46.563627 -123.131175 253 19642ft 304kts
24-Mar-23 16:54 46.541447 -123.245992 255 15533ft 286kts
24-Mar-23 16:55 46.553337 -123.346007 331 11628ft 278kts
24-Mar-23 16:56 46.604075 -123.285836 100 7939ft 293kts
24-Mar-23 16:57 46.566121 -123.193382 144 5991ft 242kts
24-Mar-23 16:58 46.513582 -123.133477 151 5991ft 238kts
24-Mar-23 16:59 46.452846 -123.099940 189 5997ft 230kts
24-Mar-23 17:00 46.382673 -123.107854 187 4278ft 252kts
24-Mar-23 17:01 46.316553 -123.113744 189 4020ft 229kts
24-Mar-23 17:02 46.254474 -123.118462 176 4014ft 223kts
24-Mar-23 17:03 46.219873 -123.045414 110 3235ft 243kts
24-Mar-23 17:04 46.181541 -122.974042 144 1987ft 211kts
24-Mar-23 17:05 46.146102 -122.931845 143 851ft 114kts
24-Mar-23 17:06 46.120754 -122.901639 144 27ft 105kts
24-Mar-23 17:07 46.116675 -122.895783 320 14ft 14kts
24-Mar-23 17:08 46.119289 -122.898164 52 20ft 8kts
24-Mar-23 17:09 46.119267 -122.897895 141 19ft 0kts
24-Mar-23 17:10 46.119267 -122.897895 141 19ft 0kts
24-Mar-23 17:11 46.119267 -122.897895 141 19ft 0kts
24-Mar-23 17:12 46.119267 -122.897895 141 19ft 0kts
24-Mar-23 17:13 46.119267 -122.897895 141 19ft 0kts
24-Mar-23 17:14 46.119267 -122.897895 141 19ft 0kts

Navigation Log

Ident Type
Flight plan parsing failed, navigation log unavailable